Главная страница
METAR-TAF:

METAR-TAF

Аэропорты :

Фор-де-Франс, Мартиника

широта: 14-36N, долгота: 061-00W, высота над уровнем моря: 5 м

Текущие метеонаблюдения

Эта сводка был подготовлена 26 минут назад, в 22:30 UTC
Ветер 9 Узел от восточный
Температура 26°C
Влажность 74%
Давление 1014 hPa
Видимость 10 км и более
Отдельные облака на высоте 2700 фута

METAR: TFFF 262230Z AUTO 10009KT 9999 SCT027 26/21 Q1014 NOSIG

Время: 18:56 (22:56 UTC)

Прогноз

Эта сводка был подготовлена 6 часа и 56 минут назад, в 16:00 UTC
Прогноз действительный с 26-го 18 UTC до 27-го 18 UTC
Ветер 12 Узел от восточный
Видимость 10 км и более
Отдельные облака на высоте 2500 фута
Вероятность 30% :
временами
С 27-го 06 UTC до 27-го 12 UTC
Видимость: 4000 м
Отдельные облака на высоте 1800 фута, мощно-кучевые.
ливневые дожди
изменения
С 27-го 12 UTC до 27-го 14 UTC
небольшая облачность на высоте 2000 фута

TAF: TFFF 261600Z 2618/2718 09012KT 9999 SCT025 PROB30 TEMPO 2706/2712 4000 SHRA SCT018TCU BECMG 2712/2714 FEW020

Метеонаблюдения и прогнозы для более 4000 аэропортов (сводки METAR и TAF).

Имеющиеся станции представлены на карте желтыми и красными точками.

Чтобы увидеть название станции, наведите на нее мышь.

Затем щелкните, чтобы увидеть метеонаблюдения и метеопрогнозы.

Управление картой: чтобы увеличить масштаб, щелкните зеленые кнопки с черным крестиком; чтобы уменьшить масштаб, щелкните зеленую кнопку с тире; для просмотра соседних карт щелкайте зеленые стрелки.


METAR-TAF: